Latest Weather Observations for Wynyard

IDT60801

Issued at 4:41 am EDT Friday 22 January 2021 (issued every 10 minutes, with the page automatically refreshed every 10 minutes)

About weather observations | Map of weather stations | Latest weather observations for TAS | Other Formats
Station Details ID: 091107 Name: WYNYARD AIRPORT Lat: -41.00 Lon: 145.73 Height: 12.0 m
Data from the previous 72 hours. | See also: Recent months at Wynyard
Date/Time
EDT
Temp
°C
App
Temp
°C
Dew
Point
°C
Rel
Hum
%
Delta-T
°C
Wind Press
QNH
hPa
Press
MSL
hPa
Rain since
9am
mm
Dir  Spd
km/h
Gust
km/h
Spd
kts
Gust
kts
22/04:30am 12.7 10.8 11.9 95 0.4 W 13 15 7 8 1005.3 1005.3 0.0
22/04:29am 12.8 11.0 12.0 95 0.4 W 13 15 7 8 1005.3 1005.3 0.0
22/04:00am 13.1 12.2 12.5 96 0.3 WNW 9 9 5 5 1005.4 1005.4 0.0
22/03:49am 13.0 12.4 12.4 96 0.3 WNW 7 9 4 5 1005.6 1005.6 0.0
22/03:30am 12.9 11.9 12.4 97 0.3 WSW 9 11 5 6 1005.8 1005.8 0.0
22/03:00am 12.3 11.2 11.8 97 0.3 SW 9 13 5 7 1006.3 1006.3 0.0
22/02:56am 12.2 11.0 11.7 97 0.3 SW 9 11 5 6 1006.4 1006.4 0.0
22/02:41am 11.7 10.7 11.1 96 0.3 SW 7 7 4 4 1006.4 1006.4 0.0
22/02:30am 11.9 11.2 11.3 96 0.3 WSW 6 7 3 4 1006.4 1006.4 0.0
22/02:22am 11.6 10.7 10.8 95 0.4 W 6 7 3 4 1006.5 1006.5 0.0
22/02:09am 12.4 11.8 11.6 95 0.4 W 6 7 3 4 1006.9 1006.9 0.0
22/02:00am 12.7 12.5 11.9 95 0.4 W 4 6 2 3 1007.1 1007.1 0.0
22/01:30am 12.6 11.8 11.8 95 0.4 W 7 9 4 5 1007.8 1007.8 0.0
22/01:00am 11.7 10.7 11.1 96 0.3 WNW 7 9 4 5 1007.8 1007.8 0.0
22/12:30am 12.1 11.2 11.5 96 0.3 WNW 7 9 4 5 1008.0 1008.0 0.0
22/12:15am 12.0 10.7 11.2 95 0.4 W 9 11 5 6 1008.3 1008.3 0.0
22/12:00am 11.9 10.6 11.3 96 0.3 W 9 11 5 6 1008.7 1008.7 0.0
 
Date/Time
EDT
Temp
°C
App
Temp
°C
Dew
Point
°C
Rel
Hum
%
Delta-T
°C
Wind Press
QNH
hPa
Press
MSL
hPa
Rain since
9am
mm
Dir  Spd
km/h
Gust
km/h
Spd
kts
Gust
kts
21/11:56pm 12.2 11.0 11.6 96 0.3 WSW 9 11 5 6 1008.7 1008.7 0.0
21/11:30pm 11.3 10.2 10.5 95 0.4 WSW 7 9 4 5 1008.8 1008.8 0.0
21/11:24pm 11.5 10.5 10.9 96 0.3 WSW 7 9 4 5 1009.0 1009.0 0.0
21/11:00pm 12.1 11.2 11.3 95 0.4 S 7 9 4 5 1009.1 1009.1 0.0
21/10:30pm 12.9 12.2 12.1 95 0.4 S 7 9 4 5 1009.5 1009.5 0.0
21/10:00pm 12.5 11.2 11.2 92 0.7 SSE 9 11 5 6 1009.6 1009.6 0.0
21/09:30pm 14.1 14.4 12.3 89 1.0 NE 2 7 1 4 1009.6 1009.6 0.0
21/09:00pm 15.6 15.1 13.8 89 1.0 NE 9 11 5 6 1010.0 1010.0 0.0
21/08:30pm 16.5 16.6 13.8 84 1.5 ENE 6 6 3 3 1010.4 1010.4 0.0
21/08:00pm 17.2 16.8 14.1 82 1.8 NNE 9 11 5 6 1010.0 1010.0 0.0
21/07:30pm 17.9 17.2 14.2 79 2.1 NNE 11 15 6 8 1009.8 1009.8 0.0
21/07:00pm 17.7 16.5 14.0 79 2.1 NNE 13 17 7 9 1010.0 1010.0 0.0
21/06:30pm 18.6 17.1 14.1 75 2.6 NNE 15 19 8 10 1010.3 1010.3 0.0
21/06:00pm 19.1 17.1 13.9 72 3.0 NNE 17 22 9 12 1010.7 1010.7 0.0
21/05:30pm 18.8 17.4 13.4 71 3.1 N 13 19 7 10 1011.3 1011.3 0.0
21/05:00pm 18.7 16.6 13.6 72 2.9 N 17 22 9 12 1011.7 1011.7 0.0
21/04:30pm 19.3 17.2 13.5 69 3.3 NNE 17 20 9 11 1011.7 1011.7 0.0
21/04:00pm 19.6 17.3 13.1 66 3.7 N 17 24 9 13 1012.2 1012.2 0.0
21/03:30pm 18.2 15.6 13.1 72 2.9 NNE 19 26 10 14 1012.8 1012.8 0.0
21/03:00pm 20.0 18.2 14.4 70 3.3 NNE 17 22 9 12 1013.3 1013.3 0.0
21/02:30pm 19.0 16.4 13.2 69 3.3 NE 19 24 10 13 1013.7 1013.7 0.0
21/02:00pm 19.4 16.6 12.7 65 3.8 NE 19 24 10 13 1014.0 1014.0 0.0
21/01:30pm 19.3 17.3 12.6 65 3.8 NE 15 22 8 12 1014.5 1014.5 0.0
21/01:00pm 20.4 18.1 13.1 63 4.2 NE 17 22 9 12 1014.8 1014.8 0.0
21/12:30pm 19.4 17.1 11.9 62 4.2 NE 15 22 8 12 1015.2 1015.2 0.0
21/12:00pm 18.4 16.3 11.2 63 3.9 ENE 13 20 7 11 1015.5 1015.5 0.0
21/11:30am 18.9 16.8 13.5 71 3.1 E 17 22 9 12 1015.9 1015.9 0.0
21/11:00am 18.4 15.5 12.8 70 3.1 ESE 20 28 11 15 1016.3 1016.3 0.0
21/10:36am 18.3 15.4 13.0 71 3.0 E 20 28 11 15 1016.3 1016.3 0.0
21/10:30am 18.4 15.1 12.8 70 3.1 E 22 30 12 16 1016.4 1016.4 0.0
21/10:00am 18.1 15.4 13.4 74 2.7 E 20 28 11 15 1016.6 1016.6 0.0
21/09:30am 17.4 14.3 12.3 72 2.8 E 20 28 11 15 1016.8 1016.8 0.0
21/09:00am 17.3 15.3 12.6 74 2.6 E 15 19 8 10 1017.0 1016.9 0.0
21/08:30am 16.6 14.7 11.7 73 2.7 ESE 13 22 7 12 1017.2 1017.1 0.0
21/08:00am 13.7 12.5 9.4 75 2.2 W 6 7 3 4 1017.2 1017.1 0.0
21/07:30am 11.0 8.5 6.7 75 2.0 WNW 9 13 5 7 1017.3 1017.2 0.0
21/07:00am 8.8 5.5 4.6 75 1.9 WNW 11 15 6 8 1017.1 1017.0 0.0
21/06:48am 8.4 5.1 4.6 77 1.7 WNW 11 13 6 7 1017.1 1017.0 0.0
21/06:30am 7.9 4.1 3.8 75 1.8 WNW 13 15 7 8 1017.1 1017.0 0.0
21/06:00am 6.9 2.9 2.8 75 1.7 WNW 13 15 7 8 1017.2 1017.1 0.0
21/05:30am 7.7 4.0 2.6 70 2.1 WNW 11 15 6 8 1017.1 1017.0 0.0
21/05:00am 7.6 3.9 2.5 70 2.1 WNW 11 17 6 9 1017.0 1016.9 0.0
21/04:30am 7.0 3.3 2.5 73 1.9 W 11 13 6 7 1017.3 1017.2 0.0
21/04:00am 7.1 3.1 3.0 75 1.7 W 13 15 7 8 1017.5 1017.4 0.0
21/03:30am 7.7 4.1 3.2 73 1.9 WNW 11 13 6 7 1017.6 1017.5 0.0
21/03:00am 6.9 3.2 2.6 74 1.8 W 11 13 6 7 1017.8 1017.7 0.0
21/02:30am 6.7 3.1 2.8 76 1.6 W 11 13 6 7 1017.9 1017.8 0.0
21/02:00am 7.5 4.2 2.4 70 2.1 W 9 11 5 6 1018.1 1018.0 0.0
21/01:30am 6.5 3.5 2.0 73 1.8 SW 7 9 4 5 1018.1 1018.0 0.0
21/01:00am 7.7 4.6 1.5 65 2.5 WSW 7 9 4 5 1018.2 1018.1 0.0
21/12:30am 10.6 7.6 0.9 51 4.0 WNW 6 7 3 4 1018.1 1018.0 0.0
21/12:00am 13.3 9.3 0.3 41 5.4 NW 11 15 6 8 1018.1 1018.0 0.0
 
Date/Time
EDT
Temp
°C
App
Temp
°C
Dew
Point
°C
Rel
Hum
%
Delta-T
°C
Wind Press
QNH
hPa
Press
MSL
hPa
Rain since
9am
mm
Dir  Spd
km/h
Gust
km/h
Spd
kts
Gust
kts
20/11:30pm 14.4 10.3 -0.5 36 6.2 WNW 11 15 6 8 1018.2 1018.1 0.0
20/11:00pm 13.5 9.4 -0.5 38 5.7 W 11 17 6 9 1018.5 1018.4 0.0
20/10:30pm 14.9 10.3 -0.8 34 6.5 WSW 13 20 7 11 1018.8 1018.7 0.0
20/10:00pm 14.7 9.6 -2.2 31 6.8 W 15 17 8 9 1018.9 1018.8 0.0
20/09:30pm 16.6 12.1 -3.0 26 7.9 WNW 11 13 6 7 1018.8 1018.7 0.0
20/09:00pm 17.7 12.1 -2.5 25 8.3 WSW 17 19 9 10 1018.7 1018.6 0.0
20/08:30pm 19.8 13.8 -1.9 23 9.2 WSW 20 24 11 13 1018.5 1018.4 0.0
20/08:00pm 21.7 14.9 -2.2 20 10.2 W 24 32 13 17 1018.3 1018.2 0.0
20/07:30pm 23.0 16.4 -0.5 21 10.5 WNW 24 32 13 17 1018.0 1017.9 0.0
20/07:00pm 22.4 16.9 5.8 34 8.3 NW 24 33 13 18 1017.9 1017.8 0.0
20/06:30pm 20.8 16.1 9.4 48 6.1 NW 24 35 13 19 1018.1 1018.0 0.0
20/06:00pm 20.4 15.1 9.9 51 5.6 NW 28 37 15 20 1018.3 1018.2 0.0
20/05:30pm 20.3 14.3 10.1 52 5.5 NW 32 43 17 23 1018.9 1018.8 0.0
20/05:00pm 20.4 14.3 8.4 46 6.2 NW 30 44 16 24 1019.3 1019.2 0.0
20/04:30pm 20.8 14.6 9.4 48 6.1 NW 32 41 17 22 1019.7 1019.6 0.0
20/04:00pm 20.3 13.7 7.7 44 6.5 NW 32 44 17 24 1019.9 1019.8 0.0
20/03:30pm 20.1 15.4 10.5 54 5.2 NW 26 35 14 19 1020.5 1020.4 0.0
20/03:00pm 19.5 15.2 9.4 52 5.3 NNW 22 33 12 18 1020.9 1020.8 0.0
20/02:30pm 20.1 15.7 10.5 54 5.2 NW 24 28 13 15 1021.3 1021.2 0.0
20/02:00pm 20.5 17.2 10.9 54 5.2 N 19 28 10 15 1021.7 1021.6 0.0
20/01:30pm 20.1 17.3 12.6 62 4.2 NNE 19 24 10 13 1022.2 1022.1 0.0
20/01:00pm 18.4 15.3 11.7 65 3.7 NNE 19 24 10 13 1022.7 1022.6 0.0
20/12:30pm 18.0 14.9 10.4 61 4.1 NNE 17 22 9 12 1023.0 1022.9 0.0
20/12:00pm 17.8 14.0 9.9 60 4.2 NE 20 24 11 13 1023.2 1023.1 0.0
20/11:30am 18.0 15.2 9.9 59 4.3 NE 15 20 8 11 1023.6 1023.5 0.0
20/11:00am 18.0 15.0 9.4 57 4.5 NE 15 20 8 11 1024.0 1023.9 0.0
20/10:30am 17.8 15.1 8.9 56 4.6 NE 13 19 7 10 1024.3 1024.2 0.0
20/10:00am 17.4 14.5 8.0 54 4.8 NE 13 17 7 9 1024.4 1024.3 0.0
20/09:30am 17.5 15.4 8.1 54 4.8 NE 9 15 5 8 1024.7 1024.6 0.0
20/09:00am 16.7 14.4 7.4 54 4.6 ESE 9 13 5 7 1024.6 1024.5 0.0
20/08:30am 14.3 11.8 6.6 60 3.7 WNW 9 11 5 6 1024.7 1024.6 0.0
20/08:00am 11.6 8.7 4.8 63 3.1 W 9 11 5 6 1024.6 1024.5 0.0
20/07:30am 9.4 5.9 3.6 67 2.5 WNW 11 15 6 8 1024.4 1024.3 0.0
20/07:00am 7.7 3.8 3.4 74 1.8 WNW 13 15 7 8 1024.3 1024.2 0.0
20/06:30am 6.5 2.6 3.3 80 1.3 WNW 13 15 7 8 1024.1 1024.0 0.0
20/06:00am 5.3 1.7 2.7 83 1.1 W 11 13 6 7 1024.0 1023.9 0.0
20/05:30am 4.8 0.6 1.7 80 1.2 W 13 15 7 8 1023.8 1023.7 0.0
20/05:00am 6.6 3.4 3.0 78 1.5 WNW 9 13 5 7 1023.5 1023.4 0.0
20/04:30am 5.9 2.3 3.1 82 1.2 W 11 13 6 7 1023.4 1023.3 0.0
20/04:00am 5.7 2.0 2.5 80 1.3 WNW 11 13 6 7 1023.5 1023.4 0.0
20/03:30am 6.2 2.5 2.5 77 1.5 W 11 13 6 7 1023.7 1023.6 0.0
20/03:00am 6.8 3.6 3.2 78 1.5 W 9 11 5 6 1023.7 1023.6 0.0
20/02:30am 7.1 3.8 2.6 73 1.9 W 9 11 5 6 1023.6 1023.5 0.0
20/02:00am 8.3 5.1 3.0 69 2.2 W 9 11 5 6 1023.6 1023.5 0.0
20/01:30am 9.5 6.0 3.3 65 2.7 SW 11 17 6 9 1023.4 1023.3 0.0
20/01:00am 9.0 5.8 3.0 66 2.5 WSW 9 11 5 6 1023.5 1023.4 0.0
20/12:30am 9.9 6.3 3.0 62 3.0 WSW 11 17 6 9 1023.4 1023.3 0.0
20/12:00am 10.0 6.1 3.3 63 2.9 SW 13 20 7 11 1023.2 1023.1 0.0
 
Date/Time
EDT
Temp
°C
App
Temp
°C
Dew
Point
°C
Rel
Hum
%
Delta-T
°C
Wind Press
QNH
hPa
Press
MSL
hPa
Rain since
9am
mm
Dir  Spd
km/h
Gust
km/h
Spd
kts
Gust
kts
19/11:30pm 11.1 7.6 3.4 59 3.4 WSW 11 17 6 9 1023.0 1022.9 0.0
19/11:00pm 11.8 8.4 3.8 58 3.5 SW 11 19 6 10 1023.1 1023.0 0.0
19/10:30pm 12.3 8.1 3.8 56 3.8 SSW 15 28 8 15 1023.0 1022.9 0.0
19/10:00pm 12.8 8.3 4.0 55 4.0 SSW 17 26 9 14 1022.8 1022.7 0.0
19/09:30pm 13.3 8.2 4.2 54 4.1 SSW 20 33 11 18 1022.6 1022.5 0.0
19/09:00pm 14.2 9.1 4.2 51 4.6 SSW 20 35 11 19 1022.3 1022.2 0.0
19/08:30pm 15.0 9.1 4.1 48 5.0 SSW 24 37 13 20 1021.9 1021.8 0.0
19/08:00pm 16.0 10.1 3.8 44 5.6 SSW 24 39 13 21 1021.5 1021.4 0.0
19/07:30pm 17.0 11.1 3.7 41 6.2 SSW 24 41 13 22 1021.4 1021.3 0.0
19/07:00pm 17.7 10.5 3.2 38 6.7 SSW 30 41 16 22 1021.2 1021.1 0.0
19/06:30pm 18.9 12.6 3.5 36 7.2 SW 26 37 14 20 1021.0 1020.9 0.0
19/06:00pm 18.9 12.7 2.3 33 7.6 SSW 24 32 13 17 1020.9 1020.8 0.0
19/05:30pm 19.1 13.2 2.0 32 7.8 SSW 22 33 12 18 1021.0 1020.9 0.0
19/05:00pm 19.4 13.9 1.9 31 8.0 SSW 20 28 11 15 1020.9 1020.8 0.0
19/04:30pm 19.4 12.5 2.3 32 7.9 SSW 28 43 15 23 1021.1 1021.0 0.0
19/04:00pm 19.0 13.5 2.0 32 7.7 SSW 20 30 11 16 1021.3 1021.2 0.0
19/03:30pm 19.5 13.9 3.2 34 7.6 S 22 39 12 21 1021.2 1021.1 0.0
19/03:00pm 18.6 12.1 2.9 35 7.2 S 26 37 14 20 1021.2 1021.1 0.0
19/02:30pm 18.2 10.8 1.7 33 7.4 SW 30 41 16 22 1021.6 1021.5 0.0
19/02:00pm 18.8 13.5 3.0 35 7.3 SSW 20 32 11 17 1021.6 1021.5 0.0
19/01:30pm 18.1 11.4 3.9 39 6.7 SW 28 44 15 24 1021.7 1021.6 0.0
19/01:00pm 17.4 11.4 3.3 39 6.5 SSW 24 43 13 23 1022.0 1021.9 0.0
19/12:30pm 16.7 9.6 3.4 41 6.1 SSW 30 50 16 27 1022.3 1022.2 0.0
19/12:29pm 16.9 10.3 4.3 43 5.9 SSW 28 50 15 27 1022.3 1022.2 0.0
19/12:00pm 16.2 8.7 3.3 42 5.9 SSW 32 44 17 24 1022.4 1022.3 0.0
19/11:31am 15.9 8.2 3.4 43 5.7 SSW 33 54 18 29 1022.2 1022.1 0.0
19/11:30am 15.9 8.4 3.7 44 5.6 SSW 32 48 17 26 1022.3 1022.2 0.0
19/11:26am 15.9 8.3 3.0 42 5.9 SSW 32 48 17 26 1022.3 1022.2 0.0
19/11:00am 14.7 6.4 2.3 43 5.5 SW 35 48 19 26 1022.4 1022.3 0.0
19/10:52am 15.1 7.4 2.3 42 5.7 S 32 44 17 24 1022.4 1022.3 0.0
19/10:30am 14.7 7.3 1.9 42 5.6 S 30 61 16 33 1022.5 1022.4 0.0
19/10:28am 14.4 7.7 1.3 41 5.7 S 26 61 14 33 1022.4 1022.3 0.0
19/10:00am 13.4 5.5 2.0 46 4.9 SW 33 43 18 23 1022.3 1022.2 0.0
19/09:30am 13.2 6.5 3.8 53 4.2 SW 28 46 15 25 1022.3 1022.2 0.0
19/09:29am 13.1 6.4 3.7 53 4.2 SW 28 46 15 25 1022.3 1022.2 0.0
19/09:00am 13.3 8.2 3.9 53 4.2 SW 20 37 11 20 1021.8 1021.7 0.0
19/08:30am 12.3 7.2 3.0 53 4.1 SW 19 30 10 16 1021.7 1021.6 0.0
19/08:00am 11.5 7.1 2.8 55 3.8 WSW 15 22 8 12 1021.3 1021.2 0.0
19/07:30am 10.7 7.2 3.7 62 3.1 WNW 11 17 6 9 1020.7 1020.6 0.0
19/07:00am 10.4 7.0 4.1 65 2.8 NW 11 15 6 8 1020.3 1020.2 0.0
19/06:30am 10.1 7.1 4.0 66 2.7 NW 9 9 5 5 1019.5 1019.4 0.0
19/06:00am 9.5 6.0 3.7 67 2.5 SW 11 19 6 10 1018.8 1018.7 0.0
19/05:30am 10.1 6.5 3.2 62 3.0 SSW 11 20 6 11 1018.4 1018.3 0.0
19/05:00am 9.7 5.0 3.2 64 2.8 SW 17 22 9 12 1017.9 1017.8 0.0

Other formats

Comma delimited format used in spreadsheet applications
http://www.bom.gov.au/fwo/IDT60801/IDT60801.95957.axf

JavaScript Object Notation format (JSON) in row-major order
http://www.bom.gov.au/fwo/IDT60801/IDT60801.95957.json

Data quality

Most of these data are generated automatically and are frequently updated. Quality checks on data are not normally performed. It is possible for incorrect values to appear. Refer to information at About Latest Weather Observations and please check the disclaimer before using these data.